Pagrindinis puslapis
METAR-TAF:

METAR-TAF

Oro uostai :

Quinhagak, Aliaska, Jungtinės Amerikos Valstijos

platuma: 59-45-18N, ilguma: 161-50-43W, Aukštis: 13 m

Dabartinis oras

Ataskaita buvo paskelbta 20 minutes, ne 04:56 UTC
Vėjas 8 kt iš Šiaurės Vakarų
Temperatūra 12°C
Drėgmė 88%
Slėgis 1004 hPa
Matomumas: 16.1 km
Mažai debesys ne aukštis 3400 ft
Su prošvaistėmis ne aukštis 4900 ft
Apsiniaukę ne aukštis 8000 ft

METAR: PAQH 160456Z AUTO 32008KT 10SM FEW034 BKN049 OVC080 12/10 A2964 RMK AO2 SLP036 T01170100

Laikas: 21:16 (05:16 UTC)


TAF: trūkstamas

Orai ataskaitas ir orų prognozės (METAR, TAF).

turimą stotys yra geltonos ir raudonos taškus žemėlapyje.

Perkelti pele per norėdami pamatyti stoties vardą.

Tada spustelėkite, norėdami matyti oro stebėjimo ir prognozės.

Norėdami pakeisti žemėlapį: spustelėkite ant žalios mygtukų su juodo kryžiaus žemyn,; žalią mygtuką su brūkšneliu, jei norite nutolinti; arba žalių rodyklių gretimoms žemėlapius.


METAR-TAF: